sensor_id;sensor_type;location;lat;lon;timestamp;temperature;humidity
63094;DHT22;49183;51.380;0.098;2022-07-22T00:00:55;16.50;74.10
63094;DHT22;49183;51.380;0.098;2022-07-22T00:03:57;16.40;74.30
63094;DHT22;49183;51.380;0.098;2022-07-22T00:06:58;16.30;74.40
63094;DHT22;49183;51.380;0.098;2022-07-22T00:09:59;16.30;74.30
63094;DHT22;49183;51.380;0.098;2022-07-22T00:13:00;16.30;74.00
63094;DHT22;49183;51.380;0.098;2022-07-22T00:15:55;16.30;73.80
63094;DHT22;49183;51.380;0.098;2022-07-22T00:18:56;16.30;73.50
63094;DHT22;49183;51.380;0.098;2022-07-22T00:21:57;16.30;73.40
63094;DHT22;49183;51.380;0.098;2022-07-22T00:24:58;16.30;73.20
63094;DHT22;49183;51.380;0.098;2022-07-22T00:27:59;16.20;72.90
63094;DHT22;49183;51.380;0.098;2022-07-22T00:31:00;16.20;72.70
63094;DHT22;49183;51.380;0.098;2022-07-22T00:34:03;16.20;72.60
63094;DHT22;49183;51.380;0.098;2022-07-22T00:37:04;16.20;72.50
63094;DHT22;49183;51.380;0.098;2022-07-22T00:40:05;16.20;72.50
63094;DHT22;49183;51.380;0.098;2022-07-22T00:43:07;16.20;72.60
63094;DHT22;49183;51.380;0.098;2022-07-22T00:46:10;16.10;72.50
63094;DHT22;49183;51.380;0.098;2022-07-22T00:49:28;16.20;72.40
63094;DHT22;49183;51.380;0.098;2022-07-22T00:52:46;16.10;72.50
63094;DHT22;49183;51.380;0.098;2022-07-22T00:56:05;16.10;72.60
63094;DHT22;49183;51.380;0.098;2022-07-22T00:59:23;16.10;72.80
63094;DHT22;49183;51.380;0.098;2022-07-22T01:02:41;16.10;72.90
63094;DHT22;49183;51.380;0.098;2022-07-22T01:05:59;16.00;73.00
63094;DHT22;49183;51.380;0.098;2022-07-22T01:09:00;16.00;73.10
63094;DHT22;49183;51.380;0.098;2022-07-22T01:12:03;16.10;73.20
63094;DHT22;49183;51.380;0.098;2022-07-22T01:15:04;16.00;73.30
63094;DHT22;49183;51.380;0.098;2022-07-22T01:18:06;16.00;73.30
63094;DHT22;49183;51.380;0.098;2022-07-22T01:21:08;16.00;73.40
63094;DHT22;49183;51.380;0.098;2022-07-22T01:24:10;16.00;73.40
63094;DHT22;49183;51.380;0.098;2022-07-22T01:27:11;16.00;73.60
63094;DHT22;49183;51.380;0.098;2022-07-22T01:30:12;16.00;73.60
63094;DHT22;49183;51.380;0.098;2022-07-22T01:33:13;15.90;73.70
63094;DHT22;49183;51.380;0.098;2022-07-22T01:36:31;16.00;73.70
63094;DHT22;49183;51.380;0.098;2022-07-22T01:39:49;15.90;73.80
63094;DHT22;49183;51.380;0.098;2022-07-22T01:43:07;15.90;73.90
63094;DHT22;49183;51.380;0.098;2022-07-22T01:46:11;15.90;74.20
63094;DHT22;49183;51.380;0.098;2022-07-22T01:49:12;15.90;74.30
63094;DHT22;49183;51.380;0.098;2022-07-22T01:52:13;15.90;74.40
63094;DHT22;49183;51.380;0.098;2022-07-22T01:55:14;15.90;74.40
63094;DHT22;49183;51.380;0.098;2022-07-22T01:58:15;15.90;74.40
63094;DHT22;49183;51.380;0.098;2022-07-22T02:01:18;15.90;74.40
63094;DHT22;49183;51.380;0.098;2022-07-22T02:04:19;15.90;74.40
63094;DHT22;49183;51.380;0.098;2022-07-22T02:07:20;15.80;74.90
63094;DHT22;49183;51.380;0.098;2022-07-22T02:10:21;15.70;76.40
63094;DHT22;49183;51.380;0.098;2022-07-22T02:13:22;15.40;77.60
63094;DHT22;49183;51.380;0.098;2022-07-22T02:16:23;15.30;78.40
63094;DHT22;49183;51.380;0.098;2022-07-22T02:19:24;15.30;78.70
63094;DHT22;49183;51.380;0.098;2022-07-22T02:22:25;15.30;79.00
63094;DHT22;49183;51.380;0.098;2022-07-22T02:25:26;15.20;79.10
63094;DHT22;49183;51.380;0.098;2022-07-22T02:28:27;15.20;79.40
63094;DHT22;49183;51.380;0.098;2022-07-22T02:31:28;15.10;79.70
63094;DHT22;49183;51.380;0.098;2022-07-22T02:34:29;15.10;79.90
63094;DHT22;49183;51.380;0.098;2022-07-22T02:37:30;15.10;80.00
63094;DHT22;49183;51.380;0.098;2022-07-22T02:40:33;15.10;80.00
63094;DHT22;49183;51.380;0.098;2022-07-22T02:43:35;15.10;79.80
63094;DHT22;49183;51.380;0.098;2022-07-22T02:46:36;15.20;79.60
63094;DHT22;49183;51.380;0.098;2022-07-22T02:49:42;15.20;79.50
63094;DHT22;49183;51.380;0.098;2022-07-22T02:52:44;15.20;79.30
63094;DHT22;49183;51.380;0.098;2022-07-22T02:55:50;15.20;79.40
63094;DHT22;49183;51.380;0.098;2022-07-22T02:58:51;15.20;79.30
63094;DHT22;49183;51.380;0.098;2022-07-22T03:01:52;15.20;79.30
63094;DHT22;49183;51.380;0.098;2022-07-22T03:04:46;15.20;79.40
63094;DHT22;49183;51.380;0.098;2022-07-22T03:07:40;15.10;79.40
63094;DHT22;49183;51.380;0.098;2022-07-22T03:10:42;15.10;79.40
63094;DHT22;49183;51.380;0.098;2022-07-22T03:13:43;15.20;79.50
63094;DHT22;49183;51.380;0.098;2022-07-22T03:16:44;15.20;79.40
63094;DHT22;49183;51.380;0.098;2022-07-22T03:19:46;15.20;79.20
63094;DHT22;49183;51.380;0.098;2022-07-22T03:22:47;15.20;79.20
63094;DHT22;49183;51.380;0.098;2022-07-22T03:25:48;15.20;79.20
63094;DHT22;49183;51.380;0.098;2022-07-22T03:28:50;15.20;79.10
63094;DHT22;49183;51.380;0.098;2022-07-22T03:31:52;15.30;79.00
63094;DHT22;49183;51.380;0.098;2022-07-22T03:34:59;15.30;78.70
63094;DHT22;49183;51.380;0.098;2022-07-22T03:38:00;15.30;78.60
63094;DHT22;49183;51.380;0.098;2022-07-22T03:41:01;15.30;78.60
63094;DHT22;49183;51.380;0.098;2022-07-22T03:44:03;15.30;78.60
63094;DHT22;49183;51.380;0.098;2022-07-22T03:47:04;15.30;78.70
63094;DHT22;49183;51.380;0.098;2022-07-22T03:50:05;15.30;78.80
63094;DHT22;49183;51.380;0.098;2022-07-22T03:53:06;15.20;78.80
63094;DHT22;49183;51.380;0.098;2022-07-22T03:56:08;15.30;78.80
63094;DHT22;49183;51.380;0.098;2022-07-22T03:59:09;15.30;78.70
63094;DHT22;49183;51.380;0.098;2022-07-22T04:02:10;15.30;78.80
63094;DHT22;49183;51.380;0.098;2022-07-22T04:05:12;15.30;78.80
63094;DHT22;49183;51.380;0.098;2022-07-22T04:08:13;15.20;78.80
63094;DHT22;49183;51.380;0.098;2022-07-22T04:11:15;15.30;78.80
63094;DHT22;49183;51.380;0.098;2022-07-22T04:14:16;15.20;78.80
63094;DHT22;49183;51.380;0.098;2022-07-22T04:17:17;15.20;78.90
63094;DHT22;49183;51.380;0.098;2022-07-22T04:20:18;15.20;78.90
63094;DHT22;49183;51.380;0.098;2022-07-22T04:23:42;15.10;79.00
63094;DHT22;49183;51.380;0.098;2022-07-22T04:26:49;15.10;79.30
63094;DHT22;49183;51.380;0.098;2022-07-22T04:29:51;15.10;79.50
63094;DHT22;49183;51.380;0.098;2022-07-22T04:32:53;15.00;79.90
63094;DHT22;49183;51.380;0.098;2022-07-22T04:35:55;14.90;80.30
63094;DHT22;49183;51.380;0.098;2022-07-22T04:38:57;14.80;80.70
63094;DHT22;49183;51.380;0.098;2022-07-22T04:42:06;14.80;81.20
63094;DHT22;49183;51.380;0.098;2022-07-22T04:45:03;14.70;81.50
63094;DHT22;49183;51.380;0.098;2022-07-22T04:48:04;14.60;81.90
63094;DHT22;49183;51.380;0.098;2022-07-22T04:51:06;14.50;82.40
63094;DHT22;49183;51.380;0.098;2022-07-22T04:54:14;14.40;82.90
63094;DHT22;49183;51.380;0.098;2022-07-22T04:57:16;14.30;83.50
63094;DHT22;49183;51.380;0.098;2022-07-22T05:00:17;14.20;84.20
63094;DHT22;49183;51.380;0.098;2022-07-22T05:03:18;14.10;84.60
63094;DHT22;49183;51.380;0.098;2022-07-22T05:06:19;14.10;85.00
63094;DHT22;49183;51.380;0.098;2022-07-22T05:09:20;14.10;85.40
63094;DHT22;49183;51.380;0.098;2022-07-22T05:12:24;14.00;85.80
63094;DHT22;49183;51.380;0.098;2022-07-22T05:15:25;13.90;86.30
63094;DHT22;49183;51.380;0.098;2022-07-22T05:18:26;13.90;86.60
63094;DHT22;49183;51.380;0.098;2022-07-22T05:21:28;13.80;87.00
63094;DHT22;49183;51.380;0.098;2022-07-22T05:24:29;13.80;87.30
63094;DHT22;49183;51.380;0.098;2022-07-22T05:27:30;13.80;87.50
63094;DHT22;49183;51.380;0.098;2022-07-22T05:30:33;13.70;87.70
63094;DHT22;49183;51.380;0.098;2022-07-22T05:33:38;13.60;88.00
63094;DHT22;49183;51.380;0.098;2022-07-22T05:36:45;13.60;88.10
63094;DHT22;49183;51.380;0.098;2022-07-22T05:39:46;13.50;88.40
63094;DHT22;49183;51.380;0.098;2022-07-22T05:42:47;13.50;88.50
63094;DHT22;49183;51.380;0.098;2022-07-22T05:45:48;13.50;88.70
63094;DHT22;49183;51.380;0.098;2022-07-22T05:48:49;13.40;88.90
63094;DHT22;49183;51.380;0.098;2022-07-22T05:52:03;13.40;89.10
63094;DHT22;49183;51.380;0.098;2022-07-22T05:55:05;13.40;89.20
63094;DHT22;49183;51.380;0.098;2022-07-22T05:58:06;13.40;89.30
63094;DHT22;49183;51.380;0.098;2022-07-22T06:01:08;13.40;89.50
63094;DHT22;49183;51.380;0.098;2022-07-22T06:04:15;13.40;89.60
63094;DHT22;49183;51.380;0.098;2022-07-22T06:07:16;13.40;89.60
63094;DHT22;49183;51.380;0.098;2022-07-22T06:10:20;13.40;89.70
63094;DHT22;49183;51.380;0.098;2022-07-22T06:13:21;13.40;89.90
63094;DHT22;49183;51.380;0.098;2022-07-22T06:16:22;13.40;89.90
63094;DHT22;49183;51.380;0.098;2022-07-22T06:19:23;13.40;89.80
63094;DHT22;49183;51.380;0.098;2022-07-22T06:22:24;13.40;89.90
63094;DHT22;49183;51.380;0.098;2022-07-22T06:25:25;13.40;90.00
63094;DHT22;49183;51.380;0.098;2022-07-22T06:28:40;13.40;90.00
63094;DHT22;49183;51.380;0.098;2022-07-22T06:31:41;13.40;90.10
63094;DHT22;49183;51.380;0.098;2022-07-22T06:34:42;13.40;90.10
63094;DHT22;49183;51.380;0.098;2022-07-22T06:37:43;13.40;90.10
63094;DHT22;49183;51.380;0.098;2022-07-22T06:41:11;13.40;90.20
63094;DHT22;49183;51.380;0.098;2022-07-22T06:44:16;13.40;90.20
63094;DHT22;49183;51.380;0.098;2022-07-22T06:47:46;13.40;90.30
63094;DHT22;49183;51.380;0.098;2022-07-22T06:50:47;13.40;90.30
63094;DHT22;49183;51.380;0.098;2022-07-22T06:53:48;13.40;90.40
63094;DHT22;49183;51.380;0.098;2022-07-22T06:56:49;13.40;90.40
63094;DHT22;49183;51.380;0.098;2022-07-22T06:59:46;13.40;90.50
63094;DHT22;49183;51.380;0.098;2022-07-22T07:02:58;13.40;90.50
63094;DHT22;49183;51.380;0.098;2022-07-22T07:06:21;13.40;90.70
63094;DHT22;49183;51.380;0.098;2022-07-22T07:09:57;13.40;90.80
63094;DHT22;49183;51.380;0.098;2022-07-22T07:13:06;13.40;90.90
63094;DHT22;49183;51.380;0.098;2022-07-22T07:16:07;13.40;91.00
63094;DHT22;49183;51.380;0.098;2022-07-22T07:19:08;13.40;91.00
63094;DHT22;49183;51.380;0.098;2022-07-22T07:22:09;13.40;91.00
63094;DHT22;49183;51.380;0.098;2022-07-22T07:25:10;13.40;91.00
63094;DHT22;49183;51.380;0.098;2022-07-22T07:28:11;13.40;91.10
63094;DHT22;49183;51.380;0.098;2022-07-22T07:31:23;13.40;91.00
63094;DHT22;49183;51.380;0.098;2022-07-22T07:34:27;13.40;91.00
63094;DHT22;49183;51.380;0.098;2022-07-22T07:37:28;13.40;91.00
63094;DHT22;49183;51.380;0.098;2022-07-22T07:40:29;13.40;91.00
63094;DHT22;49183;51.380;0.098;2022-07-22T07:43:30;13.40;91.10
63094;DHT22;49183;51.380;0.098;2022-07-22T07:46:31;13.40;91.20
63094;DHT22;49183;51.380;0.098;2022-07-22T07:49:33;13.30;91.20
63094;DHT22;49183;51.380;0.098;2022-07-22T07:52:44;13.40;91.20
63094;DHT22;49183;51.380;0.098;2022-07-22T07:55:47;13.30;91.30
63094;DHT22;49183;51.380;0.098;2022-07-22T07:58:48;13.30;91.40
63094;DHT22;49183;51.380;0.098;2022-07-22T08:02:13;13.30;91.40
63094;DHT22;49183;51.380;0.098;2022-07-22T08:05:14;13.30;91.40
63094;DHT22;49183;51.380;0.098;2022-07-22T08:08:15;13.30;91.40
63094;DHT22;49183;51.380;0.098;2022-07-22T08:11:26;13.40;91.40
63094;DHT22;49183;51.380;0.098;2022-07-22T08:14:50;13.40;91.50
63094;DHT22;49183;51.380;0.098;2022-07-22T08:17:59;13.40;91.50
63094;DHT22;49183;51.380;0.098;2022-07-22T08:21:00;13.40;91.60
63094;DHT22;49183;51.380;0.098;2022-07-22T08:24:11;13.40;91.60
63094;DHT22;49183;51.380;0.098;2022-07-22T08:27:14;13.40;91.60
63094;DHT22;49183;51.380;0.098;2022-07-22T08:30:16;13.50;91.60
63094;DHT22;49183;51.380;0.098;2022-07-22T08:33:17;13.50;91.60
63094;DHT22;49183;51.380;0.098;2022-07-22T08:36:18;13.60;91.70
63094;DHT22;49183;51.380;0.098;2022-07-22T08:39:19;13.60;91.60
63094;DHT22;49183;51.380;0.098;2022-07-22T08:42:22;13.70;91.60
63094;DHT22;49183;51.380;0.098;2022-07-22T08:45:23;13.70;91.50
63094;DHT22;49183;51.380;0.098;2022-07-22T08:48:24;13.80;91.50
63094;DHT22;49183;51.380;0.098;2022-07-22T08:51:36;13.80;91.40
63094;DHT22;49183;51.380;0.098;2022-07-22T08:54:40;13.80;91.40
63094;DHT22;49183;51.380;0.098;2022-07-22T08:57:35;13.80;91.40
63094;DHT22;49183;51.380;0.098;2022-07-22T09:00:36;13.80;91.30
63094;DHT22;49183;51.380;0.098;2022-07-22T09:03:53;13.80;91.30
63094;DHT22;49183;51.380;0.098;2022-07-22T09:06:54;13.80;91.30
63094;DHT22;49183;51.380;0.098;2022-07-22T09:09:56;13.80;91.30
63094;DHT22;49183;51.380;0.098;2022-07-22T09:13:17;13.80;91.30
63094;DHT22;49183;51.380;0.098;2022-07-22T09:19:42;13.90;91.30
63094;DHT22;49183;51.380;0.098;2022-07-22T09:22:50;14.00;91.20
63094;DHT22;49183;51.380;0.098;2022-07-22T09:25:53;14.20;91.20
63094;DHT22;49183;51.380;0.098;2022-07-22T09:28:58;14.30;91.10
63094;DHT22;49183;51.380;0.098;2022-07-22T09:32:23;14.40;90.90
63094;DHT22;49183;51.380;0.098;2022-07-22T09:35:49;14.60;90.80
63094;DHT22;49183;51.380;0.098;2022-07-22T09:38:50;14.70;90.60
63094;DHT22;49183;51.380;0.098;2022-07-22T09:42:03;14.80;90.60
63094;DHT22;49183;51.380;0.098;2022-07-22T09:45:05;14.80;90.40
63094;DHT22;49183;51.380;0.098;2022-07-22T09:48:08;14.80;90.00
63094;DHT22;49183;51.380;0.098;2022-07-22T09:51:24;14.70;89.90
63094;DHT22;49183;51.380;0.098;2022-07-22T09:54:43;14.60;89.90
63094;DHT22;49183;51.380;0.098;2022-07-22T09:57:53;14.60;90.00
63094;DHT22;49183;51.380;0.098;2022-07-22T10:01:02;14.60;90.10
63094;DHT22;49183;51.380;0.098;2022-07-22T10:04:05;14.60;90.10
63094;DHT22;49183;51.380;0.098;2022-07-22T10:07:07;14.70;90.10
63094;DHT22;49183;51.380;0.098;2022-07-22T10:10:12;14.70;89.90
63094;DHT22;49183;51.380;0.098;2022-07-22T10:13:13;14.80;89.70
63094;DHT22;49183;51.380;0.098;2022-07-22T10:16:17;14.70;89.60
63094;DHT22;49183;51.380;0.098;2022-07-22T10:19:18;14.70;89.40
63094;DHT22;49183;51.380;0.098;2022-07-22T10:25:54;14.60;89.40
63094;DHT22;49183;51.380;0.098;2022-07-22T10:29:23;14.60;89.50
63094;DHT22;49183;51.380;0.098;2022-07-22T10:32:24;14.60;89.40
63094;DHT22;49183;51.380;0.098;2022-07-22T10:35:25;14.60;89.50
63094;DHT22;49183;51.380;0.098;2022-07-22T10:38:28;14.70;89.50
63094;DHT22;49183;51.380;0.098;2022-07-22T10:41:41;14.80;89.60
63094;DHT22;49183;51.380;0.098;2022-07-22T10:44:48;14.90;89.60
63094;DHT22;49183;51.380;0.098;2022-07-22T10:48:01;15.10;89.50
63094;DHT22;49183;51.380;0.098;2022-07-22T10:51:20;15.30;89.30
63094;DHT22;49183;51.380;0.098;2022-07-22T10:54:21;15.60;88.90
63094;DHT22;49183;51.380;0.098;2022-07-22T10:57:31;15.80;88.50
63094;DHT22;49183;51.380;0.098;2022-07-22T11:00:32;15.90;88.20
63094;DHT22;49183;51.380;0.098;2022-07-22T11:03:35;16.00;87.30
63094;DHT22;49183;51.380;0.098;2022-07-22T11:06:36;16.10;87.10
63094;DHT22;49183;51.380;0.098;2022-07-22T11:09:37;16.30;86.30
63094;DHT22;49183;51.380;0.098;2022-07-22T11:12:39;16.40;86.10
63094;DHT22;49183;51.380;0.098;2022-07-22T11:15:40;16.50;85.80
63094;DHT22;49183;51.380;0.098;2022-07-22T11:19:01;16.60;85.20
63094;DHT22;49183;51.380;0.098;2022-07-22T11:22:05;16.70;84.60
63094;DHT22;49183;51.380;0.098;2022-07-22T11:25:09;16.80;84.40
63094;DHT22;49183;51.380;0.098;2022-07-22T11:28:11;16.80;84.20
63094;DHT22;49183;51.380;0.098;2022-07-22T11:31:17;16.80;84.00
63094;DHT22;49183;51.380;0.098;2022-07-22T11:34:19;16.90;83.90
63094;DHT22;49183;51.380;0.098;2022-07-22T11:37:23;17.00;83.50
63094;DHT22;49183;51.380;0.098;2022-07-22T11:40:32;17.10;83.10
63094;DHT22;49183;51.380;0.098;2022-07-22T11:43:47;17.20;82.90
63094;DHT22;49183;51.380;0.098;2022-07-22T11:46:49;17.40;83.10
63094;DHT22;49183;51.380;0.098;2022-07-22T11:49:52;17.70;83.00
63094;DHT22;49183;51.380;0.098;2022-07-22T11:52:53;17.90;81.80
63094;DHT22;49183;51.380;0.098;2022-07-22T11:56:04;18.00;81.20
63094;DHT22;49183;51.380;0.098;2022-07-22T11:59:06;18.00;80.90
63094;DHT22;49183;51.380;0.098;2022-07-22T12:02:08;18.10;81.00
63094;DHT22;49183;51.380;0.098;2022-07-22T12:05:09;18.30;80.90
63094;DHT22;49183;51.380;0.098;2022-07-22T12:08:18;18.30;80.70
63094;DHT22;49183;51.380;0.098;2022-07-22T12:11:15;18.40;79.80
63094;DHT22;49183;51.380;0.098;2022-07-22T12:14:24;18.30;79.00
63094;DHT22;49183;51.380;0.098;2022-07-22T12:17:34;18.30;79.50
63094;DHT22;49183;51.380;0.098;2022-07-22T12:20:43;18.40;78.90
63094;DHT22;49183;51.380;0.098;2022-07-22T12:23:57;18.40;78.50
63094;DHT22;49183;51.380;0.098;2022-07-22T12:27:00;18.40;78.50
63094;DHT22;49183;51.380;0.098;2022-07-22T12:30:11;18.50;78.40
63094;DHT22;49183;51.380;0.098;2022-07-22T12:33:14;18.50;78.40
63094;DHT22;49183;51.380;0.098;2022-07-22T12:36:15;18.70;77.80
63094;DHT22;49183;51.380;0.098;2022-07-22T12:39:18;18.80;77.30
63094;DHT22;49183;51.380;0.098;2022-07-22T12:42:20;19.00;77.10
63094;DHT22;49183;51.380;0.098;2022-07-22T12:45:21;19.30;76.40
63094;DHT22;49183;51.380;0.098;2022-07-22T12:48:28;19.40;76.30
63094;DHT22;49183;51.380;0.098;2022-07-22T12:51:28;19.40;76.00
63094;DHT22;49183;51.380;0.098;2022-07-22T12:54:29;19.30;75.60
63094;DHT22;49183;51.380;0.098;2022-07-22T12:57:30;19.30;75.60
63094;DHT22;49183;51.380;0.098;2022-07-22T13:00:37;19.30;75.10
63094;DHT22;49183;51.380;0.098;2022-07-22T13:03:39;19.20;75.10
63094;DHT22;49183;51.380;0.098;2022-07-22T13:06:40;19.20;75.00
63094;DHT22;49183;51.380;0.098;2022-07-22T13:09:41;19.30;74.90
63094;DHT22;49183;51.380;0.098;2022-07-22T13:12:42;19.40;74.50
63094;DHT22;49183;51.380;0.098;2022-07-22T13:15:44;19.40;74.10
63094;DHT22;49183;51.380;0.098;2022-07-22T13:18:45;19.40;74.00
63094;DHT22;49183;51.380;0.098;2022-07-22T13:21:46;19.30;73.40
63094;DHT22;49183;51.380;0.098;2022-07-22T13:24:47;19.30;73.90
63094;DHT22;49183;51.380;0.098;2022-07-22T13:27:48;19.60;73.70
63094;DHT22;49183;51.380;0.098;2022-07-22T13:30:49;19.80;72.60
63094;DHT22;49183;51.380;0.098;2022-07-22T13:33:50;19.90;72.50
63094;DHT22;49183;51.380;0.098;2022-07-22T13:36:51;20.10;72.40
63094;DHT22;49183;51.380;0.098;2022-07-22T13:39:52;20.20;71.40
63094;DHT22;49183;51.380;0.098;2022-07-22T13:42:53;20.20;70.50
63094;DHT22;49183;51.380;0.098;2022-07-22T13:46:01;20.10;70.50
63094;DHT22;49183;51.380;0.098;2022-07-22T13:49:03;20.10;70.50
63094;DHT22;49183;51.380;0.098;2022-07-22T13:52:05;20.30;71.00
63094;DHT22;49183;51.380;0.098;2022-07-22T13:55:06;20.40;70.70
63094;DHT22;49183;51.380;0.098;2022-07-22T13:58:07;20.70;70.20
63094;DHT22;49183;51.380;0.098;2022-07-22T14:01:08;20.90;69.40
63094;DHT22;49183;51.380;0.098;2022-07-22T14:04:10;20.90;68.40
63094;DHT22;49183;51.380;0.098;2022-07-22T14:07:10;20.90;68.80
63094;DHT22;49183;51.380;0.098;2022-07-22T14:10:11;20.90;69.00
63094;DHT22;49183;51.380;0.098;2022-07-22T14:13:13;20.60;68.90
63094;DHT22;49183;51.380;0.098;2022-07-22T14:16:14;20.50;69.40
63094;DHT22;49183;51.380;0.098;2022-07-22T14:19:44;20.40;69.90
63094;DHT22;49183;51.380;0.098;2022-07-22T14:22:47;20.30;70.20
63094;DHT22;49183;51.380;0.098;2022-07-22T14:25:48;20.20;70.00
63094;DHT22;49183;51.380;0.098;2022-07-22T14:28:49;20.00;70.20
63094;DHT22;49183;51.380;0.098;2022-07-22T14:31:50;19.90;70.90
63094;DHT22;49183;51.380;0.098;2022-07-22T14:34:51;20.00;70.60
63094;DHT22;49183;51.380;0.098;2022-07-22T14:37:52;19.90;70.20
63094;DHT22;49183;51.380;0.098;2022-07-22T14:40:53;19.80;70.40
63094;DHT22;49183;51.380;0.098;2022-07-22T14:43:54;19.80;70.50
63094;DHT22;49183;51.380;0.098;2022-07-22T14:46:55;19.80;70.50
63094;DHT22;49183;51.380;0.098;2022-07-22T14:49:57;19.80;70.50
63094;DHT22;49183;51.380;0.098;2022-07-22T14:52:57;19.70;70.80
63094;DHT22;49183;51.380;0.098;2022-07-22T14:55:58;19.60;70.90
63094;DHT22;49183;51.380;0.098;2022-07-22T14:58:59;19.60;71.00
63094;DHT22;49183;51.380;0.098;2022-07-22T15:02:00;19.50;71.40
63094;DHT22;49183;51.380;0.098;2022-07-22T15:05:01;19.50;71.50
63094;DHT22;49183;51.380;0.098;2022-07-22T15:08:02;19.60;71.30
63094;DHT22;49183;51.380;0.098;2022-07-22T15:11:03;19.60;71.50
63094;DHT22;49183;51.380;0.098;2022-07-22T15:14:04;19.70;71.30
63094;DHT22;49183;51.380;0.098;2022-07-22T15:17:05;19.80;71.30
63094;DHT22;49183;51.380;0.098;2022-07-22T15:20:07;19.90;70.90
63094;DHT22;49183;51.380;0.098;2022-07-22T15:23:08;20.10;70.80
63094;DHT22;49183;51.380;0.098;2022-07-22T15:26:09;20.30;70.60
63094;DHT22;49183;51.380;0.098;2022-07-22T15:29:10;20.50;70.30
63094;DHT22;49183;51.380;0.098;2022-07-22T15:32:11;20.70;69.60
63094;DHT22;49183;51.380;0.098;2022-07-22T15:35:13;20.90;69.20
63094;DHT22;49183;51.380;0.098;2022-07-22T15:38:14;21.10;68.80
63094;DHT22;49183;51.380;0.098;2022-07-22T15:41:14;21.40;67.70
63094;DHT22;49183;51.380;0.098;2022-07-22T15:44:15;21.50;67.40
63094;DHT22;49183;51.380;0.098;2022-07-22T15:47:17;21.60;67.10
63094;DHT22;49183;51.380;0.098;2022-07-22T15:50:17;21.80;66.80
63094;DHT22;49183;51.380;0.098;2022-07-22T15:53:18;21.80;66.50
63094;DHT22;49183;51.380;0.098;2022-07-22T15:56:19;21.80;66.10
63094;DHT22;49183;51.380;0.098;2022-07-22T15:59:20;21.60;65.70
63094;DHT22;49183;51.380;0.098;2022-07-22T16:02:27;21.50;65.90
63094;DHT22;49183;51.380;0.098;2022-07-22T16:05:28;21.30;66.10
63094;DHT22;49183;51.380;0.098;2022-07-22T16:08:29;21.10;66.40
63094;DHT22;49183;51.380;0.098;2022-07-22T16:11:30;21.10;66.80
63094;DHT22;49183;51.380;0.098;2022-07-22T16:14:31;20.80;66.40
63094;DHT22;49183;51.380;0.098;2022-07-22T16:17:33;20.50;67.00
63094;DHT22;49183;51.380;0.098;2022-07-22T16:20:33;20.30;67.80
63094;DHT22;49183;51.380;0.098;2022-07-22T16:23:34;20.30;68.20
63094;DHT22;49183;51.380;0.098;2022-07-22T16:26:36;20.20;68.30
63094;DHT22;49183;51.380;0.098;2022-07-22T16:29:36;20.10;68.50
63094;DHT22;49183;51.380;0.098;2022-07-22T16:32:38;19.90;69.00
63094;DHT22;49183;51.380;0.098;2022-07-22T16:35:43;19.80;69.60
63094;DHT22;49183;51.380;0.098;2022-07-22T16:38:45;19.80;70.00
63094;DHT22;49183;51.380;0.098;2022-07-22T16:41:45;19.60;70.00
63094;DHT22;49183;51.380;0.098;2022-07-22T16:44:39;19.50;70.50
63094;DHT22;49183;51.380;0.098;2022-07-22T16:47:40;19.40;70.90
63094;DHT22;49183;51.380;0.098;2022-07-22T16:50:41;19.40;70.80
63094;DHT22;49183;51.380;0.098;2022-07-22T16:53:43;19.40;71.10
63094;DHT22;49183;51.380;0.098;2022-07-22T16:56:43;19.40;71.10
63094;DHT22;49183;51.380;0.098;2022-07-22T16:59:44;19.30;71.20
63094;DHT22;49183;51.380;0.098;2022-07-22T17:02:45;19.30;71.40
63094;DHT22;49183;51.380;0.098;2022-07-22T17:05:48;19.30;71.60
63094;DHT22;49183;51.380;0.098;2022-07-22T17:08:59;19.20;72.20
63094;DHT22;49183;51.380;0.098;2022-07-22T17:12:04;19.10;72.50
63094;DHT22;49183;51.380;0.098;2022-07-22T17:15:05;18.90;72.80
63094;DHT22;49183;51.380;0.098;2022-07-22T17:18:00;18.80;73.10
63094;DHT22;49183;51.380;0.098;2022-07-22T17:20:54;18.80;73.30
63094;DHT22;49183;51.380;0.098;2022-07-22T17:23:55;18.80;73.50
63094;DHT22;49183;51.380;0.098;2022-07-22T17:26:56;18.70;73.70
63094;DHT22;49183;51.380;0.098;2022-07-22T17:29:57;18.70;74.00
63094;DHT22;49183;51.380;0.098;2022-07-22T17:32:58;18.60;74.50
63094;DHT22;49183;51.380;0.098;2022-07-22T17:35:59;18.50;75.00
63094;DHT22;49183;51.380;0.098;2022-07-22T17:39:02;18.40;75.40
63094;DHT22;49183;51.380;0.098;2022-07-22T17:42:13;18.40;75.80
63094;DHT22;49183;51.380;0.098;2022-07-22T17:45:13;18.30;76.00
63094;DHT22;49183;51.380;0.098;2022-07-22T17:48:17;18.30;76.20
63094;DHT22;49183;51.380;0.098;2022-07-22T17:51:18;18.30;76.30
63094;DHT22;49183;51.380;0.098;2022-07-22T17:54:19;18.30;76.50
63094;DHT22;49183;51.380;0.098;2022-07-22T17:57:20;18.30;76.60
63094;DHT22;49183;51.380;0.098;2022-07-22T18:00:22;18.30;76.80
63094;DHT22;49183;51.380;0.098;2022-07-22T18:03:23;18.30;76.90
63094;DHT22;49183;51.380;0.098;2022-07-22T18:06:24;18.20;77.00
63094;DHT22;49183;51.380;0.098;2022-07-22T18:09:25;18.20;77.10
63094;DHT22;49183;51.380;0.098;2022-07-22T18:12:26;18.20;77.10
63094;DHT22;49183;51.380;0.098;2022-07-22T18:15:28;18.10;77.10
63094;DHT22;49183;51.380;0.098;2022-07-22T18:18:28;18.10;77.20
63094;DHT22;49183;51.380;0.098;2022-07-22T18:21:29;18.10;77.30
63094;DHT22;49183;51.380;0.098;2022-07-22T18:24:30;18.00;77.40
63094;DHT22;49183;51.380;0.098;2022-07-22T18:27:31;18.00;77.40
63094;DHT22;49183;51.380;0.098;2022-07-22T18:30:32;18.00;77.60
63094;DHT22;49183;51.380;0.098;2022-07-22T18:33:34;18.00;77.70
63094;DHT22;49183;51.380;0.098;2022-07-22T18:36:35;17.90;77.70
63094;DHT22;49183;51.380;0.098;2022-07-22T18:39:36;17.90;77.70
63094;DHT22;49183;51.380;0.098;2022-07-22T18:42:38;17.90;77.70
63094;DHT22;49183;51.380;0.098;2022-07-22T18:45:38;17.80;77.90
63094;DHT22;49183;51.380;0.098;2022-07-22T18:48:42;17.70;78.10
63094;DHT22;49183;51.380;0.098;2022-07-22T18:51:43;17.60;78.40
63094;DHT22;49183;51.380;0.098;2022-07-22T18:54:44;17.60;78.60
63094;DHT22;49183;51.380;0.098;2022-07-22T18:57:45;17.60;78.70
63094;DHT22;49183;51.380;0.098;2022-07-22T19:00:47;17.50;79.20
63094;DHT22;49183;51.380;0.098;2022-07-22T19:03:48;17.50;79.40
63094;DHT22;49183;51.380;0.098;2022-07-22T19:06:49;17.50;79.80
63094;DHT22;49183;51.380;0.098;2022-07-22T19:09:50;17.50;80.10
63094;DHT22;49183;51.380;0.098;2022-07-22T19:12:51;17.40;80.10
63094;DHT22;49183;51.380;0.098;2022-07-22T19:15:52;17.40;80.10
63094;DHT22;49183;51.380;0.098;2022-07-22T19:18:52;17.30;80.10
63094;DHT22;49183;51.380;0.098;2022-07-22T19:21:54;17.30;80.30
63094;DHT22;49183;51.380;0.098;2022-07-22T19:24:55;17.20;80.60